createdAt,value
2022-11-30T00:56:35.514Z,2.78
2022-11-30T00:59:38.633Z,2.72
2022-11-30T01:02:41.535Z,2.78
2022-11-30T01:05:44.606Z,2.77
2022-11-30T01:08:48.245Z,2.81
2022-11-30T01:11:50.938Z,2.82
2022-11-30T01:14:53.625Z,2.83
2022-11-30T01:17:56.974Z,2.88
2022-11-30T01:20:59.709Z,2.87
2022-11-30T01:24:02.394Z,2.96
2022-11-30T01:27:05.138Z,2.97
2022-11-30T01:30:08.496Z,2.94
2022-11-30T01:33:11.295Z,2.98
2022-11-30T01:36:16.368Z,2.91
2022-11-30T01:39:19.152Z,2.86
2022-11-30T01:42:21.954Z,2.95
2022-11-30T01:45:25.250Z,2.88
2022-11-30T01:48:29.301Z,2.94
2022-11-30T01:51:46.902Z,3.00
2022-11-30T01:54:56.164Z,2.95
2022-11-30T01:58:20.419Z,2.97
2022-11-30T02:01:23.264Z,2.96
2022-11-30T02:04:31.983Z,3.02
2022-11-30T02:07:35.494Z,3.05
2022-11-30T02:10:42.860Z,3.11
2022-11-30T02:14:01.103Z,3.08
2022-11-30T02:17:06.714Z,3.12
2022-11-30T02:20:19.420Z,3.11
2022-11-30T02:23:41.219Z,3.15
2022-11-30T02:26:56.936Z,3.03
2022-11-30T02:30:11.614Z,3.05
2022-11-30T02:33:18.391Z,3.07
2022-11-30T02:36:22.270Z,3.12
2022-11-30T02:39:25.150Z,3.11
2022-11-30T02:42:28.004Z,3.06
2022-11-30T02:45:42.154Z,3.16
2022-11-30T02:49:06.531Z,3.15
2022-11-30T02:52:11.077Z,3.07
2022-11-30T02:55:17.405Z,3.02
2022-11-30T02:58:21.547Z,2.99
2022-11-30T03:01:25.737Z,3.00
2022-11-30T03:04:28.545Z,2.98
2022-11-30T03:07:31.424Z,2.98
2022-11-30T03:10:34.313Z,3.03
2022-11-30T03:13:37.146Z,3.01
2022-11-30T03:16:39.959Z,3.08
2022-11-30T03:19:42.752Z,3.09
2022-11-30T03:22:45.553Z,3.00
2022-11-30T03:25:49.964Z,3.11
2022-11-30T03:28:52.795Z,2.98
2022-11-30T03:31:55.695Z,3.03
2022-11-30T03:34:58.562Z,3.01
2022-11-30T03:38:01.336Z,3.05
2022-11-30T03:41:22.250Z,3.08
2022-11-30T03:44:24.940Z,3.08
2022-11-30T03:47:27.677Z,3.02
2022-11-30T03:50:30.484Z,3.00
2022-11-30T03:53:33.612Z,3.08
2022-11-30T03:56:36.409Z,3.05
2022-11-30T03:59:39.297Z,3.08
2022-11-30T04:02:44.819Z,3.00
2022-11-30T04:05:47.932Z,2.93
2022-11-30T04:08:50.725Z,2.97
2022-11-30T04:11:53.782Z,3.02
2022-11-30T04:14:56.548Z,3.01
2022-11-30T04:17:59.382Z,3.01
2022-11-30T04:21:02.876Z,3.04
2022-11-30T04:24:06.054Z,3.03
2022-11-30T04:27:08.878Z,3.07
2022-11-30T04:30:12.725Z,3.09
2022-11-30T04:33:16.636Z,3.17
2022-11-30T04:36:20.932Z,3.14
2022-11-30T04:39:23.768Z,3.15
2022-11-30T04:42:26.568Z,3.15
2022-11-30T04:45:35.070Z,3.24
2022-11-30T04:48:38.393Z,3.13
2022-11-30T04:51:41.148Z,3.06
2022-11-30T04:54:44.001Z,3.12
2022-11-30T04:57:47.697Z,3.12
2022-11-30T05:00:53.562Z,3.22
2022-11-30T05:03:57.680Z,3.21
2022-11-30T05:07:00.579Z,3.10
2022-11-30T05:10:05.460Z,3.11
2022-11-30T05:13:08.283Z,3.12
2022-11-30T05:16:11.053Z,3.12
2022-11-30T05:19:14.804Z,3.04
2022-11-30T05:22:17.565Z,3.13
2022-11-30T05:25:20.521Z,3.06
2022-11-30T05:28:23.479Z,3.06
2022-11-30T05:31:26.360Z,3.13
2022-11-30T05:34:29.498Z,3.12
2022-11-30T05:37:32.326Z,3.14
2022-11-30T05:40:35.317Z,3.16
2022-11-30T05:43:38.251Z,3.20
2022-11-30T05:46:41.371Z,3.15
2022-11-30T05:49:44.481Z,3.15
2022-11-30T05:52:47.198Z,3.11
2022-11-30T05:55:50.079Z,3.12
2022-11-30T05:58:53.205Z,3.17
2022-11-30T06:01:56.066Z,3.16
2022-11-30T06:04:58.953Z,3.11
2022-11-30T06:08:01.787Z,3.04
2022-11-30T06:11:05.001Z,3.09
2022-11-30T06:14:08.150Z,3.02
2022-11-30T06:17:10.945Z,3.04
2022-11-30T06:20:14.342Z,3.06
2022-11-30T06:23:17.345Z,3.07
2022-11-30T06:26:20.539Z,3.12
2022-11-30T06:29:23.319Z,3.06
2022-11-30T06:32:26.232Z,3.00
2022-11-30T06:35:29.228Z,3.22
2022-11-30T06:38:32.067Z,3.32
2022-11-30T06:41:35.167Z,3.24
2022-11-30T06:44:38.071Z,3.17
2022-11-30T06:47:41.124Z,3.21
2022-11-30T06:50:49.739Z,3.33
2022-11-30T06:54:05.846Z,3.28
2022-11-30T06:57:08.667Z,3.35
2022-11-30T07:00:12.873Z,3.29
2022-11-30T07:03:17.868Z,3.36
2022-11-30T07:06:20.992Z,3.33
2022-11-30T07:09:24.885Z,3.35
2022-11-30T07:12:28.062Z,3.44
2022-11-30T07:15:30.896Z,3.45
2022-11-30T07:18:34.269Z,3.57
2022-11-30T07:21:37.275Z,3.49
2022-11-30T07:24:58.486Z,3.38
2022-11-30T07:28:01.276Z,3.47
2022-11-30T07:31:22.243Z,3.47
2022-11-30T07:34:26.669Z,3.49
2022-11-30T07:37:29.695Z,3.51
2022-11-30T07:40:32.476Z,3.59
2022-11-30T07:43:35.894Z,3.56
2022-11-30T07:46:39.430Z,3.62
2022-11-30T07:49:42.514Z,3.61
2022-11-30T07:52:45.361Z,3.67
2022-11-30T07:55:51.529Z,3.58
2022-11-30T07:59:00.947Z,3.56
2022-11-30T08:02:03.993Z,3.58
2022-11-30T08:05:07.821Z,3.61
2022-11-30T08:08:11.046Z,3.60
2022-11-30T08:11:18.028Z,3.64
2022-11-30T08:14:21.113Z,3.68
2022-11-30T08:17:25.239Z,3.75
2022-11-30T08:20:30.118Z,3.30
2022-11-30T08:23:37.087Z,3.45
2022-11-30T08:26:40.288Z,3.41
2022-11-30T08:29:43.133Z,3.53
2022-11-30T08:32:46.228Z,3.45
2022-11-30T08:35:49.949Z,3.61
2022-11-30T08:38:53.057Z,3.61
2022-11-30T08:41:56.157Z,3.66
2022-11-30T08:44:59.290Z,3.74
2022-11-30T08:48:02.275Z,3.66
2022-11-30T08:51:09.806Z,3.72
2022-11-30T08:54:12.684Z,3.82
2022-11-30T08:57:21.270Z,3.87
2022-11-30T09:00:24.191Z,3.83
2022-11-30T09:03:27.790Z,3.67
2022-11-30T09:06:44.924Z,3.89
2022-11-30T09:10:05.164Z,3.86
2022-11-30T09:13:08.644Z,4.02
2022-11-30T09:16:12.821Z,3.73
2022-11-30T09:19:16.417Z,3.55
2022-11-30T09:22:19.510Z,3.75
2022-11-30T09:25:22.267Z,3.64
2022-11-30T09:28:25.527Z,3.60
2022-11-30T09:31:28.848Z,3.64
2022-11-30T09:34:32.261Z,3.62
2022-11-30T09:37:35.370Z,3.71
2022-11-30T09:40:41.903Z,3.60
2022-11-30T09:44:24.869Z,3.65
2022-11-30T09:47:58.881Z,3.68
2022-11-30T09:51:10.728Z,3.81
2022-11-30T09:54:38.110Z,4.00
2022-11-30T09:57:48.909Z,4.04
2022-11-30T10:00:51.962Z,4.21
2022-11-30T10:03:54.963Z,4.27
2022-11-30T10:07:25.285Z,4.18
2022-11-30T10:10:47.450Z,4.33
2022-11-30T10:14:10.595Z,4.42
2022-11-30T10:30:39.819Z,4.47
2022-11-30T10:33:54.885Z,4.29
2022-11-30T10:37:22.153Z,4.63
2022-11-30T10:40:48.803Z,4.47
2022-11-30T10:43:59.165Z,4.58
2022-11-30T10:47:20.158Z,4.21
2022-11-30T10:50:28.299Z,4.20
2022-11-30T10:53:37.678Z,4.56
2022-11-30T10:56:40.450Z,4.56
2022-11-30T10:59:52.876Z,4.76
2022-11-30T11:02:55.819Z,4.71
2022-11-30T11:06:25.979Z,4.77
2022-11-30T11:09:32.538Z,4.85
2022-11-30T11:12:35.786Z,4.96
2022-11-30T11:16:05.852Z,4.82
2022-11-30T11:19:26.874Z,4.94
2022-11-30T11:22:31.880Z,4.86
2022-11-30T11:25:37.492Z,4.94
2022-11-30T11:28:45.679Z,4.92
2022-11-30T11:31:49.169Z,5.05
2022-11-30T11:34:52.764Z,5.11
2022-11-30T11:37:55.734Z,5.50
2022-11-30T11:41:05.374Z,5.71
2022-11-30T11:44:08.564Z,5.96
2022-11-30T11:47:25.733Z,5.21
2022-11-30T11:54:00.809Z,4.65
2022-11-30T11:57:07.525Z,4.54
2022-11-30T12:00:25.070Z,4.53
2022-11-30T12:03:55.764Z,4.76
2022-11-30T12:07:01.634Z,4.83
2022-11-30T12:10:51.119Z,4.74
2022-11-30T12:13:50.519Z,4.74
2022-11-30T12:17:24.635Z,4.67
2022-11-30T12:20:47.495Z,4.80
2022-11-30T12:24:19.616Z,4.45
2022-11-30T12:27:52.092Z,4.48
2022-11-30T12:31:06.972Z,4.47
2022-11-30T12:34:28.172Z,4.59
2022-11-30T12:37:49.678Z,4.65
2022-11-30T12:41:19.421Z,4.92
2022-11-30T12:44:22.776Z,4.80
2022-11-30T12:47:29.304Z,4.67
2022-11-30T12:50:51.106Z,4.62
2022-11-30T12:54:16.861Z,4.72
2022-11-30T12:57:41.379Z,4.66
2022-11-30T13:00:57.568Z,4.60
2022-11-30T13:04:10.437Z,4.75
2022-11-30T13:07:26.226Z,4.47
2022-11-30T13:10:43.387Z,4.41
2022-11-30T13:13:52.447Z,4.45
2022-11-30T13:17:04.841Z,4.63
2022-11-30T13:20:21.223Z,4.65
2022-11-30T13:23:39.248Z,4.67
2022-11-30T13:26:46.125Z,4.48
2022-11-30T13:30:06.667Z,4.39
2022-11-30T13:33:34.886Z,4.41
2022-11-30T13:36:45.359Z,4.31
2022-11-30T13:39:51.207Z,4.39
2022-11-30T13:42:56.466Z,4.31
2022-11-30T13:46:03.594Z,4.56
2022-11-30T13:49:27.478Z,4.66
2022-11-30T13:52:58.408Z,4.62
2022-11-30T13:56:07.896Z,4.58
2022-11-30T13:59:23.607Z,4.63
2022-11-30T14:02:42.031Z,4.65
2022-11-30T14:05:52.591Z,4.57
2022-11-30T14:08:55.427Z,4.59
2022-11-30T14:11:58.315Z,4.56
2022-11-30T14:15:02.659Z,4.61
2022-11-30T14:18:08.876Z,4.52
2022-11-30T14:21:29.407Z,4.43
2022-11-30T14:24:32.433Z,4.52
2022-11-30T14:27:36.853Z,4.40
2022-11-30T14:30:40.610Z,4.40
2022-11-30T14:34:12.011Z,4.39
2022-11-30T14:37:27.348Z,4.38
2022-11-30T14:40:30.813Z,4.37
2022-11-30T14:43:33.602Z,4.24
2022-11-30T14:46:36.604Z,4.25
2022-11-30T14:49:52.161Z,4.14
2022-11-30T14:53:22.792Z,4.14
2022-11-30T14:56:32.830Z,4.16
2022-11-30T14:59:54.517Z,4.07
2022-11-30T15:02:57.454Z,4.04
2022-11-30T15:06:03.934Z,4.14
2022-11-30T15:09:15.712Z,4.15
2022-11-30T15:12:22.598Z,4.18
2022-11-30T15:15:31.520Z,4.17
2022-11-30T15:18:34.372Z,4.17
2022-11-30T15:21:37.267Z,4.17
2022-11-30T15:24:40.136Z,4.07
2022-11-30T15:27:43.482Z,3.99
2022-11-30T15:30:47.656Z,4.03
2022-11-30T15:33:51.681Z,3.96
2022-11-30T15:36:56.231Z,3.97
2022-11-30T15:40:01.936Z,3.98
2022-11-30T15:43:04.971Z,4.01
2022-11-30T15:46:27.396Z,4.07
2022-11-30T15:49:31.839Z,4.05
2022-11-30T15:52:37.056Z,4.01
2022-11-30T15:55:51.674Z,4.03
2022-11-30T15:59:22.535Z,3.99
2022-11-30T16:02:31.426Z,4.01
2022-11-30T16:05:34.313Z,3.92
2022-11-30T16:08:37.075Z,3.91
2022-11-30T16:11:40.047Z,3.93
2022-11-30T16:14:43.072Z,3.94
2022-11-30T16:17:45.933Z,4.00
2022-11-30T16:20:52.792Z,3.99
2022-11-30T16:23:55.888Z,3.83
2022-11-30T16:26:59.094Z,3.95
2022-11-30T16:30:02.196Z,3.91
2022-11-30T16:33:05.449Z,3.88
2022-11-30T16:36:13.550Z,3.92
2022-11-30T16:39:16.548Z,3.93
2022-11-30T16:42:19.574Z,3.92
2022-11-30T16:45:25.230Z,3.87
2022-11-30T16:48:28.634Z,3.83
2022-11-30T16:51:34.819Z,3.82
2022-11-30T16:54:37.632Z,3.75
2022-11-30T16:57:40.737Z,3.81
2022-11-30T17:00:43.923Z,3.83
2022-11-30T17:03:50.503Z,3.87
2022-11-30T17:07:00.467Z,3.83
2022-11-30T17:10:06.628Z,3.83
2022-11-30T17:13:14.752Z,3.82
2022-11-30T17:16:17.623Z,3.86
2022-11-30T17:19:20.987Z,3.84
2022-11-30T17:22:24.102Z,3.81
2022-11-30T17:25:27.082Z,3.76
2022-11-30T17:28:29.883Z,3.79
2022-11-30T17:31:33.511Z,3.73
2022-11-30T17:34:36.331Z,3.75
2022-11-30T17:37:39.382Z,3.73
2022-11-30T17:40:42.400Z,3.72
2022-11-30T17:43:45.338Z,3.73
2022-11-30T17:46:48.603Z,3.64
2022-11-30T17:49:51.966Z,3.73
2022-11-30T17:52:54.870Z,3.71
2022-11-30T17:56:13.023Z,3.67
2022-11-30T17:59:16.101Z,3.65
2022-11-30T18:02:19.177Z,3.62
2022-11-30T18:05:24.108Z,3.63
2022-11-30T18:08:27.843Z,3.65
2022-11-30T18:11:30.987Z,3.62
2022-11-30T18:14:33.962Z,3.61
2022-11-30T18:17:37.067Z,3.61
2022-11-30T18:20:40.129Z,3.65
2022-11-30T18:23:43.241Z,3.58
2022-11-30T18:26:46.572Z,3.61
2022-11-30T18:29:50.264Z,3.51
2022-11-30T18:32:53.311Z,3.59
2022-11-30T18:36:00.559Z,3.53
2022-11-30T18:39:03.706Z,3.62
2022-11-30T18:42:07.004Z,3.60
2022-11-30T18:45:10.521Z,3.59
2022-11-30T18:48:13.579Z,3.59
2022-11-30T18:51:23.080Z,3.67
2022-11-30T18:54:26.730Z,3.67
2022-11-30T18:57:29.541Z,3.73
2022-11-30T19:00:32.633Z,3.69
2022-11-30T19:03:36.798Z,3.65
2022-11-30T19:06:41.906Z,3.64
2022-11-30T19:09:44.880Z,3.61
2022-11-30T19:12:48.175Z,3.71
2022-11-30T19:15:51.296Z,3.71
2022-11-30T19:18:55.025Z,3.68
2022-11-30T19:21:59.134Z,3.71
2022-11-30T19:25:02.171Z,3.75
2022-11-30T19:28:05.363Z,3.71
2022-11-30T19:31:11.276Z,3.74
2022-11-30T19:34:14.638Z,3.66
2022-11-30T19:37:17.845Z,3.74
2022-11-30T19:40:21.392Z,3.70
2022-11-30T19:43:25.118Z,3.77
2022-11-30T19:46:28.748Z,3.74
2022-11-30T19:49:31.886Z,3.67
2022-11-30T19:52:34.931Z,3.60
2022-11-30T19:55:39.442Z,3.60
2022-11-30T19:58:45.029Z,3.60
2022-11-30T20:01:48.300Z,3.66
2022-11-30T20:04:51.653Z,3.60
2022-11-30T20:07:54.480Z,3.61
2022-11-30T20:10:57.629Z,3.56
2022-11-30T20:14:00.807Z,3.56
2022-11-30T20:17:04.379Z,3.63
2022-11-30T20:20:07.761Z,3.53
2022-11-30T20:23:10.819Z,3.52
2022-11-30T20:26:23.432Z,3.54
2022-11-30T20:29:26.596Z,3.47
2022-11-30T20:32:29.820Z,3.49
2022-11-30T20:35:35.144Z,3.50
2022-11-30T20:38:39.212Z,3.56
2022-11-30T20:41:42.619Z,3.57
2022-11-30T20:44:46.267Z,3.62
2022-11-30T20:47:49.515Z,3.70
2022-11-30T20:51:22.112Z,3.67
2022-11-30T20:54:16.866Z,3.66
2022-11-30T20:57:19.941Z,3.63
2022-11-30T21:00:23.180Z,3.62
2022-11-30T21:03:26.886Z,3.69
2022-11-30T21:06:30.766Z,3.49
2022-11-30T21:09:33.802Z,3.35
2022-11-30T21:12:36.663Z,3.38
2022-11-30T21:15:39.564Z,3.39
2022-11-30T21:18:44.853Z,3.39
2022-11-30T21:21:47.681Z,3.46
2022-11-30T21:24:50.876Z,3.43
2022-11-30T21:27:53.602Z,3.44
2022-11-30T21:30:56.542Z,3.47
2022-11-30T21:33:59.724Z,3.59
2022-11-30T21:37:02.862Z,3.44
2022-11-30T21:40:06.312Z,3.38
2022-11-30T21:43:09.088Z,3.30
2022-11-30T21:46:14.244Z,3.37
2022-11-30T21:49:17.348Z,3.42
2022-11-30T21:52:20.219Z,3.52
2022-11-30T21:55:22.982Z,3.48
2022-11-30T21:58:26.043Z,3.36
2022-11-30T22:01:35.643Z,3.38
2022-11-30T22:04:39.306Z,3.40
2022-11-30T22:07:42.215Z,3.32
2022-11-30T22:10:45.020Z,3.28
2022-11-30T22:13:54.754Z,3.29
2022-11-30T22:16:57.621Z,3.33
2022-11-30T22:20:00.471Z,3.44
2022-11-30T22:23:03.311Z,3.40
2022-11-30T22:26:13.239Z,3.39
2022-11-30T22:29:19.389Z,3.45
2022-11-30T22:32:22.530Z,3.39
2022-11-30T22:35:25.319Z,3.56
2022-11-30T22:38:31.782Z,3.50
2022-11-30T22:41:34.526Z,3.50
2022-11-30T22:44:37.303Z,3.52
2022-11-30T22:47:40.036Z,3.52
2022-11-30T22:50:42.926Z,3.43
2022-11-30T22:53:47.806Z,3.46
2022-11-30T22:56:50.654Z,3.46
2022-11-30T22:59:53.446Z,3.43
2022-11-30T23:02:56.239Z,3.41
2022-11-30T23:05:59.545Z,3.44
2022-11-30T23:09:04.299Z,3.43
2022-11-30T23:12:07.379Z,3.36
2022-11-30T23:15:10.597Z,3.43
2022-11-30T23:18:13.321Z,3.35
2022-11-30T23:21:19.746Z,3.38
2022-11-30T23:24:22.526Z,3.45
2022-11-30T23:27:25.222Z,3.34
2022-11-30T23:30:27.999Z,3.37
2022-11-30T23:33:31.112Z,3.34
2022-11-30T23:36:34.874Z,3.28
2022-11-30T23:39:38.266Z,3.38
2022-11-30T23:42:41.131Z,3.40
2022-11-30T23:45:43.968Z,3.35
2022-11-30T23:48:46.895Z,3.34
2022-11-30T23:51:49.870Z,3.38
2022-11-30T23:54:53.142Z,3.40
2022-11-30T23:57:55.869Z,3.40
